sensor_id;sensor_type;location;lat;lon;timestamp;P1;durP1;ratioP1;P2;durP2;ratioP2
67049;SDS011;53955;52.442;13.284;2023-11-19T00:00:20;8.30;;;5.83;;
67049;SDS011;53955;52.442;13.284;2023-11-19T00:02:49;10.40;;;6.33;;
67049;SDS011;53955;52.442;13.284;2023-11-19T00:05:16;10.67;;;5.57;;
67049;SDS011;53955;52.442;13.284;2023-11-19T00:07:43;10.70;;;6.40;;
67049;SDS011;53955;52.442;13.284;2023-11-19T00:10:10;9.80;;;6.30;;
67049;SDS011;53955;52.442;13.284;2023-11-19T00:12:38;9.07;;;5.83;;
67049;SDS011;53955;52.442;13.284;2023-11-19T00:15:06;9.03;;;5.40;;
67049;SDS011;53955;52.442;13.284;2023-11-19T00:17:36;10.47;;;6.20;;
67049;SDS011;53955;52.442;13.284;2023-11-19T00:20:03;9.90;;;5.87;;
67049;SDS011;53955;52.442;13.284;2023-11-19T00:22:31;10.13;;;6.17;;
67049;SDS011;53955;52.442;13.284;2023-11-19T00:24:58;11.87;;;6.00;;
67049;SDS011;53955;52.442;13.284;2023-11-19T00:27:25;9.53;;;5.83;;
67049;SDS011;53955;52.442;13.284;2023-11-19T00:29:52;9.00;;;5.60;;
67049;SDS011;53955;52.442;13.284;2023-11-19T00:32:18;9.97;;;5.67;;
67049;SDS011;53955;52.442;13.284;2023-11-19T00:34:45;11.27;;;5.83;;
67049;SDS011;53955;52.442;13.284;2023-11-19T00:37:14;8.83;;;5.70;;
67049;SDS011;53955;52.442;13.284;2023-11-19T00:39:41;8.23;;;5.00;;
67049;SDS011;53955;52.442;13.284;2023-11-19T00:42:08;8.77;;;5.37;;
67049;SDS011;53955;52.442;13.284;2023-11-19T00:44:36;8.73;;;5.27;;
67049;SDS011;53955;52.442;13.284;2023-11-19T00:47:03;8.63;;;5.47;;
67049;SDS011;53955;52.442;13.284;2023-11-19T00:49:30;9.00;;;5.83;;
67049;SDS011;53955;52.442;13.284;2023-11-19T00:51:57;8.83;;;5.63;;
67049;SDS011;53955;52.442;13.284;2023-11-19T00:54:26;8.70;;;5.87;;
67049;SDS011;53955;52.442;13.284;2023-11-19T00:56:52;7.20;;;4.93;;
67049;SDS011;53955;52.442;13.284;2023-11-19T00:59:19;13.40;;;6.20;;
67049;SDS011;53955;52.442;13.284;2023-11-19T01:01:46;8.67;;;5.03;;
67049;SDS011;53955;52.442;13.284;2023-11-19T01:04:14;10.20;;;5.67;;
67049;SDS011;53955;52.442;13.284;2023-11-19T01:06:40;9.77;;;5.50;;
67049;SDS011;53955;52.442;13.284;2023-11-19T01:09:08;8.53;;;5.40;;
67049;SDS011;53955;52.442;13.284;2023-11-19T01:11:36;6.73;;;4.70;;
67049;SDS011;53955;52.442;13.284;2023-11-19T01:14:03;7.37;;;4.97;;
67049;SDS011;53955;52.442;13.284;2023-11-19T01:16:29;9.03;;;5.43;;
67049;SDS011;53955;52.442;13.284;2023-11-19T01:18:56;9.37;;;5.67;;
67049;SDS011;53955;52.442;13.284;2023-11-19T01:21:23;9.57;;;4.80;;
67049;SDS011;53955;52.442;13.284;2023-11-19T01:23:49;6.30;;;4.90;;
67049;SDS011;53955;52.442;13.284;2023-11-19T01:26:16;7.00;;;4.87;;
67049;SDS011;53955;52.442;13.284;2023-11-19T01:28:43;8.67;;;5.43;;
67049;SDS011;53955;52.442;13.284;2023-11-19T01:31:11;8.70;;;5.33;;
67049;SDS011;53955;52.442;13.284;2023-11-19T01:33:40;7.43;;;5.00;;
67049;SDS011;53955;52.442;13.284;2023-11-19T01:36:08;9.47;;;5.33;;
67049;SDS011;53955;52.442;13.284;2023-11-19T01:38:35;8.40;;;5.37;;
67049;SDS011;53955;52.442;13.284;2023-11-19T01:41:02;8.63;;;4.70;;
67049;SDS011;53955;52.442;13.284;2023-11-19T01:43:32;11.63;;;5.43;;
67049;SDS011;53955;52.442;13.284;2023-11-19T01:46:02;7.50;;;5.03;;
67049;SDS011;53955;52.442;13.284;2023-11-19T01:48:30;7.83;;;4.83;;
67049;SDS011;53955;52.442;13.284;2023-11-19T01:50:59;12.37;;;5.13;;
67049;SDS011;53955;52.442;13.284;2023-11-19T01:53:27;8.80;;;4.93;;
67049;SDS011;53955;52.442;13.284;2023-11-19T01:55:54;7.17;;;5.00;;
67049;SDS011;53955;52.442;13.284;2023-11-19T01:58:22;8.10;;;5.50;;
67049;SDS011;53955;52.442;13.284;2023-11-19T02:00:50;6.87;;;4.57;;
67049;SDS011;53955;52.442;13.284;2023-11-19T02:03:18;7.90;;;5.40;;
67049;SDS011;53955;52.442;13.284;2023-11-19T02:05:46;7.77;;;4.40;;
67049;SDS011;53955;52.442;13.284;2023-11-19T02:08:15;8.57;;;4.90;;
67049;SDS011;53955;52.442;13.284;2023-11-19T02:10:42;6.87;;;4.23;;
67049;SDS011;53955;52.442;13.284;2023-11-19T02:13:09;7.30;;;4.60;;
67049;SDS011;53955;52.442;13.284;2023-11-19T02:15:35;7.33;;;4.60;;
67049;SDS011;53955;52.442;13.284;2023-11-19T02:18:19;9.37;;;4.60;;
67049;SDS011;53955;52.442;13.284;2023-11-19T02:20:46;6.30;;;4.57;;
67049;SDS011;53955;52.442;13.284;2023-11-19T02:23:13;6.17;;;4.37;;
67049;SDS011;53955;52.442;13.284;2023-11-19T02:25:39;7.07;;;4.37;;
67049;SDS011;53955;52.442;13.284;2023-11-19T02:28:08;7.70;;;4.50;;
67049;SDS011;53955;52.442;13.284;2023-11-19T02:30:36;6.67;;;4.37;;
67049;SDS011;53955;52.442;13.284;2023-11-19T02:33:03;6.90;;;4.47;;
67049;SDS011;53955;52.442;13.284;2023-11-19T02:35:31;8.03;;;4.50;;
67049;SDS011;53955;52.442;13.284;2023-11-19T02:37:58;7.97;;;4.27;;
67049;SDS011;53955;52.442;13.284;2023-11-19T02:40:25;6.93;;;4.23;;
67049;SDS011;53955;52.442;13.284;2023-11-19T02:42:52;6.60;;;4.07;;
67049;SDS011;53955;52.442;13.284;2023-11-19T02:45:20;7.83;;;4.37;;
67049;SDS011;53955;52.442;13.284;2023-11-19T02:47:47;6.60;;;4.40;;
67049;SDS011;53955;52.442;13.284;2023-11-19T02:50:14;7.43;;;4.20;;
67049;SDS011;53955;52.442;13.284;2023-11-19T02:52:41;7.57;;;4.53;;
67049;SDS011;53955;52.442;13.284;2023-11-19T02:55:08;7.80;;;4.00;;
67049;SDS011;53955;52.442;13.284;2023-11-19T02:57:37;9.20;;;4.07;;
67049;SDS011;53955;52.442;13.284;2023-11-19T03:00:05;7.50;;;4.03;;
67049;SDS011;53955;52.442;13.284;2023-11-19T03:02:38;7.37;;;3.97;;
67049;SDS011;53955;52.442;13.284;2023-11-19T03:05:09;6.00;;;4.00;;
67049;SDS011;53955;52.442;13.284;2023-11-19T03:07:36;4.70;;;3.53;;
67049;SDS011;53955;52.442;13.284;2023-11-19T03:10:03;6.93;;;3.97;;
67049;SDS011;53955;52.442;13.284;2023-11-19T03:12:31;7.60;;;4.17;;
67049;SDS011;53955;52.442;13.284;2023-11-19T03:14:57;6.23;;;4.27;;
67049;SDS011;53955;52.442;13.284;2023-11-19T03:17:24;7.17;;;3.80;;
67049;SDS011;53955;52.442;13.284;2023-11-19T03:19:52;4.77;;;3.13;;
67049;SDS011;53955;52.442;13.284;2023-11-19T03:22:19;4.77;;;3.40;;
67049;SDS011;53955;52.442;13.284;2023-11-19T03:24:46;6.53;;;4.07;;
67049;SDS011;53955;52.442;13.284;2023-11-19T03:27:12;6.67;;;3.73;;
67049;SDS011;53955;52.442;13.284;2023-11-19T03:29:39;6.73;;;4.33;;
67049;SDS011;53955;52.442;13.284;2023-11-19T03:32:06;7.30;;;3.80;;
67049;SDS011;53955;52.442;13.284;2023-11-19T03:34:32;5.93;;;3.93;;
67049;SDS011;53955;52.442;13.284;2023-11-19T03:37:00;7.97;;;4.23;;
67049;SDS011;53955;52.442;13.284;2023-11-19T03:39:28;8.47;;;4.00;;
67049;SDS011;53955;52.442;13.284;2023-11-19T03:41:55;6.63;;;4.27;;
67049;SDS011;53955;52.442;13.284;2023-11-19T03:44:21;6.23;;;3.93;;
67049;SDS011;53955;52.442;13.284;2023-11-19T03:46:48;6.43;;;3.97;;
67049;SDS011;53955;52.442;13.284;2023-11-19T03:49:14;6.87;;;4.50;;
67049;SDS011;53955;52.442;13.284;2023-11-19T03:51:41;8.63;;;4.60;;
67049;SDS011;53955;52.442;13.284;2023-11-19T03:54:09;6.77;;;4.50;;
67049;SDS011;53955;52.442;13.284;2023-11-19T03:56:36;6.27;;;4.37;;
67049;SDS011;53955;52.442;13.284;2023-11-19T03:59:03;5.80;;;4.23;;
67049;SDS011;53955;52.442;13.284;2023-11-19T04:01:29;7.50;;;4.30;;
67049;SDS011;53955;52.442;13.284;2023-11-19T04:03:56;7.13;;;4.10;;
67049;SDS011;53955;52.442;13.284;2023-11-19T04:06:23;6.30;;;4.30;;
67049;SDS011;53955;52.442;13.284;2023-11-19T04:08:49;6.05;;;4.00;;
67049;SDS011;53955;52.442;13.284;2023-11-19T04:11:17;6.63;;;4.20;;
67049;SDS011;53955;52.442;13.284;2023-11-19T04:13:44;7.27;;;4.50;;
67049;SDS011;53955;52.442;13.284;2023-11-19T04:16:10;6.63;;;4.47;;
67049;SDS011;53955;52.442;13.284;2023-11-19T04:18:37;9.30;;;4.83;;
67049;SDS011;53955;52.442;13.284;2023-11-19T04:21:05;7.70;;;4.60;;
67049;SDS011;53955;52.442;13.284;2023-11-19T04:23:32;8.13;;;4.43;;
67049;SDS011;53955;52.442;13.284;2023-11-19T04:26:01;8.93;;;4.83;;
67049;SDS011;53955;52.442;13.284;2023-11-19T04:28:30;7.20;;;4.90;;
67049;SDS011;53955;52.442;13.284;2023-11-19T04:30:56;8.37;;;4.43;;
67049;SDS011;53955;52.442;13.284;2023-11-19T04:33:23;8.67;;;4.47;;
67049;SDS011;53955;52.442;13.284;2023-11-19T04:35:50;9.30;;;5.00;;
67049;SDS011;53955;52.442;13.284;2023-11-19T04:38:16;8.00;;;4.65;;
67049;SDS011;53955;52.442;13.284;2023-11-19T04:40:43;6.73;;;4.43;;
67049;SDS011;53955;52.442;13.284;2023-11-19T04:43:09;7.30;;;4.60;;
67049;SDS011;53955;52.442;13.284;2023-11-19T04:45:37;8.23;;;4.70;;
67049;SDS011;53955;52.442;13.284;2023-11-19T04:48:04;8.23;;;5.17;;
67049;SDS011;53955;52.442;13.284;2023-11-19T04:50:31;7.23;;;4.93;;
67049;SDS011;53955;52.442;13.284;2023-11-19T04:52:57;8.23;;;4.80;;
67049;SDS011;53955;52.442;13.284;2023-11-19T04:55:24;8.90;;;5.37;;
67049;SDS011;53955;52.442;13.284;2023-11-19T04:57:53;7.33;;;4.93;;
67049;SDS011;53955;52.442;13.284;2023-11-19T05:00:20;8.50;;;4.53;;
67049;SDS011;53955;52.442;13.284;2023-11-19T05:02:48;8.37;;;4.90;;
67049;SDS011;53955;52.442;13.284;2023-11-19T05:05:15;7.87;;;4.73;;
67049;SDS011;53955;52.442;13.284;2023-11-19T05:07:42;8.47;;;4.90;;
67049;SDS011;53955;52.442;13.284;2023-11-19T05:10:09;7.40;;;4.60;;
67049;SDS011;53955;52.442;13.284;2023-11-19T05:24:51;7.50;;;4.50;;
67049;SDS011;53955;52.442;13.284;2023-11-19T05:27:17;6.90;;;4.30;;
67049;SDS011;53955;52.442;13.284;2023-11-19T05:29:44;9.43;;;5.33;;
67049;SDS011;53955;52.442;13.284;2023-11-19T05:32:10;8.30;;;4.67;;
67049;SDS011;53955;52.442;13.284;2023-11-19T05:34:37;7.50;;;4.30;;
67049;SDS011;53955;52.442;13.284;2023-11-19T05:37:05;9.27;;;5.23;;
67049;SDS011;53955;52.442;13.284;2023-11-19T05:39:31;6.80;;;4.80;;
67049;SDS011;53955;52.442;13.284;2023-11-19T05:41:58;8.63;;;5.50;;
67049;SDS011;53955;52.442;13.284;2023-11-19T05:44:25;6.90;;;4.57;;
67049;SDS011;53955;52.442;13.284;2023-11-19T05:46:51;6.53;;;4.27;;
67049;SDS011;53955;52.442;13.284;2023-11-19T05:49:18;7.50;;;5.00;;
67049;SDS011;53955;52.442;13.284;2023-11-19T05:51:44;7.63;;;5.27;;
67049;SDS011;53955;52.442;13.284;2023-11-19T05:54:13;8.17;;;4.80;;
67049;SDS011;53955;52.442;13.284;2023-11-19T05:56:40;8.90;;;5.23;;
67049;SDS011;53955;52.442;13.284;2023-11-19T05:59:06;7.70;;;4.90;;
67049;SDS011;53955;52.442;13.284;2023-11-19T06:01:39;9.60;;;5.10;;
67049;SDS011;53955;52.442;13.284;2023-11-19T06:04:06;8.00;;;4.73;;
67049;SDS011;53955;52.442;13.284;2023-11-19T06:06:33;8.90;;;5.40;;
67049;SDS011;53955;52.442;13.284;2023-11-19T06:09:00;6.23;;;4.63;;
67049;SDS011;53955;52.442;13.284;2023-11-19T06:11:32;9.20;;;5.20;;
67049;SDS011;53955;52.442;13.284;2023-11-19T06:14:00;7.17;;;4.83;;
67049;SDS011;53955;52.442;13.284;2023-11-19T06:16:28;6.97;;;4.90;;
67049;SDS011;53955;52.442;13.284;2023-11-19T06:18:54;6.93;;;4.67;;
67049;SDS011;53955;52.442;13.284;2023-11-19T06:21:21;7.93;;;5.33;;
67049;SDS011;53955;52.442;13.284;2023-11-19T06:23:47;7.80;;;4.40;;
67049;SDS011;53955;52.442;13.284;2023-11-19T06:26:16;7.30;;;5.00;;
67049;SDS011;53955;52.442;13.284;2023-11-19T06:28:44;6.53;;;4.50;;
67049;SDS011;53955;52.442;13.284;2023-11-19T06:31:11;7.10;;;4.77;;
67049;SDS011;53955;52.442;13.284;2023-11-19T06:33:41;8.30;;;5.00;;
67049;SDS011;53955;52.442;13.284;2023-11-19T06:36:07;9.83;;;5.23;;
67049;SDS011;53955;52.442;13.284;2023-11-19T06:38:35;7.97;;;5.03;;
67049;SDS011;53955;52.442;13.284;2023-11-19T06:41:01;7.83;;;4.90;;
67049;SDS011;53955;52.442;13.284;2023-11-19T06:43:31;6.87;;;4.40;;
67049;SDS011;53955;52.442;13.284;2023-11-19T06:46:00;6.97;;;4.70;;
67049;SDS011;53955;52.442;13.284;2023-11-19T06:48:26;7.37;;;4.80;;
67049;SDS011;53955;52.442;13.284;2023-11-19T06:50:53;8.03;;;5.17;;
67049;SDS011;53955;52.442;13.284;2023-11-19T06:53:19;7.90;;;4.70;;
67049;SDS011;53955;52.442;13.284;2023-11-19T06:55:46;6.93;;;4.50;;
67049;SDS011;53955;52.442;13.284;2023-11-19T06:58:13;7.40;;;4.53;;
67049;SDS011;53955;52.442;13.284;2023-11-19T07:00:40;6.60;;;3.97;;
67049;SDS011;53955;52.442;13.284;2023-11-19T07:03:08;7.43;;;4.60;;
67049;SDS011;53955;52.442;13.284;2023-11-19T07:05:35;6.93;;;4.20;;
67049;SDS011;53955;52.442;13.284;2023-11-19T07:08:03;6.87;;;4.27;;
67049;SDS011;53955;52.442;13.284;2023-11-19T07:10:30;7.10;;;4.60;;
67049;SDS011;53955;52.442;13.284;2023-11-19T07:12:56;7.87;;;4.47;;
67049;SDS011;53955;52.442;13.284;2023-11-19T07:15:23;6.47;;;4.30;;
67049;SDS011;53955;52.442;13.284;2023-11-19T07:17:49;8.30;;;4.63;;
67049;SDS011;53955;52.442;13.284;2023-11-19T07:20:17;9.60;;;5.10;;
67049;SDS011;53955;52.442;13.284;2023-11-19T07:22:44;6.30;;;4.43;;
67049;SDS011;53955;52.442;13.284;2023-11-19T07:25:11;6.90;;;4.43;;
67049;SDS011;53955;52.442;13.284;2023-11-19T07:27:38;6.43;;;4.23;;
67049;SDS011;53955;52.442;13.284;2023-11-19T07:30:05;7.47;;;5.47;;
67049;SDS011;53955;52.442;13.284;2023-11-19T07:32:33;7.63;;;4.57;;
67049;SDS011;53955;52.442;13.284;2023-11-19T07:34:59;6.80;;;4.30;;
67049;SDS011;53955;52.442;13.284;2023-11-19T07:37:27;6.83;;;4.13;;
67049;SDS011;53955;52.442;13.284;2023-11-19T07:39:54;9.60;;;4.20;;
67049;SDS011;53955;52.442;13.284;2023-11-19T07:42:20;8.03;;;4.20;;
67049;SDS011;53955;52.442;13.284;2023-11-19T07:44:47;7.17;;;4.33;;
67049;SDS011;53955;52.442;13.284;2023-11-19T07:47:14;6.73;;;4.30;;
67049;SDS011;53955;52.442;13.284;2023-11-19T07:49:41;7.90;;;4.60;;
67049;SDS011;53955;52.442;13.284;2023-11-19T07:52:08;6.37;;;4.40;;
67049;SDS011;53955;52.442;13.284;2023-11-19T07:54:36;6.67;;;4.43;;
67049;SDS011;53955;52.442;13.284;2023-11-19T07:57:03;6.77;;;4.30;;
67049;SDS011;53955;52.442;13.284;2023-11-19T07:59:30;6.17;;;4.20;;
67049;SDS011;53955;52.442;13.284;2023-11-19T08:01:56;7.23;;;4.63;;
67049;SDS011;53955;52.442;13.284;2023-11-19T08:04:23;7.37;;;4.47;;
67049;SDS011;53955;52.442;13.284;2023-11-19T08:06:50;6.27;;;3.73;;
67049;SDS011;53955;52.442;13.284;2023-11-19T08:09:16;6.03;;;3.90;;
67049;SDS011;53955;52.442;13.284;2023-11-19T08:11:44;7.77;;;4.30;;
67049;SDS011;53955;52.442;13.284;2023-11-19T08:14:11;5.47;;;3.70;;
67049;SDS011;53955;52.442;13.284;2023-11-19T08:16:38;4.13;;;2.87;;
67049;SDS011;53955;52.442;13.284;2023-11-19T08:19:05;6.73;;;3.87;;
67049;SDS011;53955;52.442;13.284;2023-11-19T08:21:31;4.77;;;3.13;;
67049;SDS011;53955;52.442;13.284;2023-11-19T08:23:58;4.67;;;3.37;;
67049;SDS011;53955;52.442;13.284;2023-11-19T08:26:24;5.33;;;3.47;;
67049;SDS011;53955;52.442;13.284;2023-11-19T08:28:52;6.07;;;3.60;;
67049;SDS011;53955;52.442;13.284;2023-11-19T08:31:19;4.13;;;2.93;;
67049;SDS011;53955;52.442;13.284;2023-11-19T08:33:45;5.17;;;3.13;;
67049;SDS011;53955;52.442;13.284;2023-11-19T08:36:15;3.63;;;2.67;;
67049;SDS011;53955;52.442;13.284;2023-11-19T08:38:42;3.80;;;2.90;;
67049;SDS011;53955;52.442;13.284;2023-11-19T08:41:09;5.03;;;3.00;;
67049;SDS011;53955;52.442;13.284;2023-11-19T08:43:35;4.33;;;2.87;;
67049;SDS011;53955;52.442;13.284;2023-11-19T08:46:04;5.80;;;3.47;;
67049;SDS011;53955;52.442;13.284;2023-11-19T08:48:35;5.33;;;3.47;;
67049;SDS011;53955;52.442;13.284;2023-11-19T08:51:02;5.43;;;3.83;;
67049;SDS011;53955;52.442;13.284;2023-11-19T08:53:29;5.57;;;3.67;;
67049;SDS011;53955;52.442;13.284;2023-11-19T08:55:56;5.50;;;3.37;;
67049;SDS011;53955;52.442;13.284;2023-11-19T08:58:22;8.00;;;3.83;;
67049;SDS011;53955;52.442;13.284;2023-11-19T09:00:49;8.70;;;4.87;;
67049;SDS011;53955;52.442;13.284;2023-11-19T09:03:17;8.17;;;4.80;;
67049;SDS011;53955;52.442;13.284;2023-11-19T09:05:43;11.93;;;5.93;;
67049;SDS011;53955;52.442;13.284;2023-11-19T09:08:10;12.87;;;5.90;;
67049;SDS011;53955;52.442;13.284;2023-11-19T09:10:37;11.57;;;6.13;;
67049;SDS011;53955;52.442;13.284;2023-11-19T09:13:04;14.57;;;6.63;;
67049;SDS011;53955;52.442;13.284;2023-11-19T09:15:30;14.20;;;6.83;;
67049;SDS011;53955;52.442;13.284;2023-11-19T09:17:57;14.43;;;7.37;;
67049;SDS011;53955;52.442;13.284;2023-11-19T09:20:25;12.87;;;6.63;;
67049;SDS011;53955;52.442;13.284;2023-11-19T09:22:51;10.63;;;5.60;;
67049;SDS011;53955;52.442;13.284;2023-11-19T09:25:18;9.47;;;5.40;;
67049;SDS011;53955;52.442;13.284;2023-11-19T09:27:45;7.37;;;3.80;;
67049;SDS011;53955;52.442;13.284;2023-11-19T09:30:12;5.90;;;3.20;;
67049;SDS011;53955;52.442;13.284;2023-11-19T09:32:39;5.07;;;3.20;;
67049;SDS011;53955;52.442;13.284;2023-11-19T09:35:05;5.20;;;3.00;;
67049;SDS011;53955;52.442;13.284;2023-11-19T09:37:34;7.40;;;2.80;;
67049;SDS011;53955;52.442;13.284;2023-11-19T09:40:00;4.67;;;2.80;;
67049;SDS011;53955;52.442;13.284;2023-11-19T09:42:27;5.77;;;2.50;;
67049;SDS011;53955;52.442;13.284;2023-11-19T09:44:53;3.43;;;2.33;;
67049;SDS011;53955;52.442;13.284;2023-11-19T09:47:22;3.17;;;2.00;;
67049;SDS011;53955;52.442;13.284;2023-11-19T09:49:49;4.60;;;2.20;;
67049;SDS011;53955;52.442;13.284;2023-11-19T09:52:17;4.40;;;2.17;;
67049;SDS011;53955;52.442;13.284;2023-11-19T09:54:45;2.23;;;1.70;;
67049;SDS011;53955;52.442;13.284;2023-11-19T09:57:12;8.63;;;2.60;;
67049;SDS011;53955;52.442;13.284;2023-11-19T09:59:42;3.27;;;1.80;;
67049;SDS011;53955;52.442;13.284;2023-11-19T10:02:10;3.83;;;2.13;;
67049;SDS011;53955;52.442;13.284;2023-11-19T10:04:37;4.90;;;1.93;;
67049;SDS011;53955;52.442;13.284;2023-11-19T10:07:05;3.67;;;1.70;;
67049;SDS011;53955;52.442;13.284;2023-11-19T10:09:32;3.37;;;1.70;;
67049;SDS011;53955;52.442;13.284;2023-11-19T10:12:00;3.97;;;2.03;;
67049;SDS011;53955;52.442;13.284;2023-11-19T10:14:26;4.53;;;1.70;;
67049;SDS011;53955;52.442;13.284;2023-11-19T10:16:56;4.13;;;2.20;;
67049;SDS011;53955;52.442;13.284;2023-11-19T10:19:23;2.83;;;1.83;;
67049;SDS011;53955;52.442;13.284;2023-11-19T10:21:49;4.00;;;2.20;;
67049;SDS011;53955;52.442;13.284;2023-11-19T10:24:15;4.93;;;2.30;;
67049;SDS011;53955;52.442;13.284;2023-11-19T10:26:42;3.60;;;1.83;;
67049;SDS011;53955;52.442;13.284;2023-11-19T10:29:10;3.27;;;2.00;;
67049;SDS011;53955;52.442;13.284;2023-11-19T10:31:39;5.60;;;1.90;;
67049;SDS011;53955;52.442;13.284;2023-11-19T10:34:09;8.73;;;2.17;;
67049;SDS011;53955;52.442;13.284;2023-11-19T10:36:50;6.60;;;2.30;;
67049;SDS011;53955;52.442;13.284;2023-11-19T10:39:17;5.00;;;1.97;;
67049;SDS011;53955;52.442;13.284;2023-11-19T10:41:45;5.03;;;2.43;;
67049;SDS011;53955;52.442;13.284;2023-11-19T10:44:13;4.00;;;2.10;;
67049;SDS011;53955;52.442;13.284;2023-11-19T10:46:58;3.53;;;2.20;;
67049;SDS011;53955;52.442;13.284;2023-11-19T10:49:25;5.00;;;2.17;;
67049;SDS011;53955;52.442;13.284;2023-11-19T10:51:52;5.77;;;1.90;;
67049;SDS011;53955;52.442;13.284;2023-11-19T10:54:22;6.67;;;2.13;;
67049;SDS011;53955;52.442;13.284;2023-11-19T10:56:49;6.27;;;2.30;;
67049;SDS011;53955;52.442;13.284;2023-11-19T10:59:22;11.03;;;3.33;;
67049;SDS011;53955;52.442;13.284;2023-11-19T11:01:50;11.37;;;2.40;;
67049;SDS011;53955;52.442;13.284;2023-11-19T11:04:19;7.10;;;2.40;;
67049;SDS011;53955;52.442;13.284;2023-11-19T11:06:48;5.57;;;2.77;;
67049;SDS011;53955;52.442;13.284;2023-11-19T11:09:16;7.00;;;2.73;;
67049;SDS011;53955;52.442;13.284;2023-11-19T11:11:44;5.80;;;2.37;;
67049;SDS011;53955;52.442;13.284;2023-11-19T11:14:13;7.27;;;2.47;;
67049;SDS011;53955;52.442;13.284;2023-11-19T11:16:43;6.67;;;2.13;;
67049;SDS011;53955;52.442;13.284;2023-11-19T11:19:10;9.60;;;2.57;;
67049;SDS011;53955;52.442;13.284;2023-11-19T11:21:38;10.80;;;2.80;;
67049;SDS011;53955;52.442;13.284;2023-11-19T11:24:20;8.67;;;2.47;;
67049;SDS011;53955;52.442;13.284;2023-11-19T11:27:28;9.67;;;2.60;;
67049;SDS011;53955;52.442;13.284;2023-11-19T11:30:13;12.37;;;3.40;;
67049;SDS011;53955;52.442;13.284;2023-11-19T11:32:54;11.37;;;2.90;;
67049;SDS011;53955;52.442;13.284;2023-11-19T11:35:32;10.30;;;3.23;;
67049;SDS011;53955;52.442;13.284;2023-11-19T11:38:08;10.57;;;2.70;;
67049;SDS011;53955;52.442;13.284;2023-11-19T11:40:35;12.40;;;3.07;;
67049;SDS011;53955;52.442;13.284;2023-11-19T11:43:02;11.97;;;3.20;;
67049;SDS011;53955;52.442;13.284;2023-11-19T11:45:36;8.63;;;3.37;;
67049;SDS011;53955;52.442;13.284;2023-11-19T11:50:55;16.40;;;3.57;;
67049;SDS011;53955;52.442;13.284;2023-11-19T11:53:23;7.03;;;2.50;;
67049;SDS011;53955;52.442;13.284;2023-11-19T11:55:54;8.60;;;2.97;;
67049;SDS011;53955;52.442;13.284;2023-11-19T11:58:25;9.53;;;2.80;;
67049;SDS011;53955;52.442;13.284;2023-11-19T12:00:52;7.47;;;2.73;;
67049;SDS011;53955;52.442;13.284;2023-11-19T12:03:20;13.60;;;3.27;;
67049;SDS011;53955;52.442;13.284;2023-11-19T12:05:49;9.37;;;3.20;;
67049;SDS011;53955;52.442;13.284;2023-11-19T12:08:18;10.67;;;3.00;;
67049;SDS011;53955;52.442;13.284;2023-11-19T12:10:46;8.13;;;2.90;;
67049;SDS011;53955;52.442;13.284;2023-11-19T12:13:15;8.53;;;2.77;;
67049;SDS011;53955;52.442;13.284;2023-11-19T12:18:35;5.43;;;2.70;;
67049;SDS011;53955;52.442;13.284;2023-11-19T12:21:06;9.93;;;3.43;;
67049;SDS011;53955;52.442;13.284;2023-11-19T12:23:34;12.30;;;2.80;;
67049;SDS011;53955;52.442;13.284;2023-11-19T12:26:01;10.20;;;2.50;;
67049;SDS011;53955;52.442;13.284;2023-11-19T12:28:28;13.03;;;3.33;;
67049;SDS011;53955;52.442;13.284;2023-11-19T12:31:06;10.30;;;2.90;;
67049;SDS011;53955;52.442;13.284;2023-11-19T12:33:35;7.37;;;2.73;;
67049;SDS011;53955;52.442;13.284;2023-11-19T12:36:03;8.83;;;3.00;;
67049;SDS011;53955;52.442;13.284;2023-11-19T12:38:32;12.50;;;3.03;;
67049;SDS011;53955;52.442;13.284;2023-11-19T12:41:02;9.00;;;2.53;;
67049;SDS011;53955;52.442;13.284;2023-11-19T12:43:29;12.70;;;3.43;;
67049;SDS011;53955;52.442;13.284;2023-11-19T12:45:56;10.77;;;3.20;;
67049;SDS011;53955;52.442;13.284;2023-11-19T12:48:23;16.60;;;3.37;;
67049;SDS011;53955;52.442;13.284;2023-11-19T12:50:52;10.23;;;2.87;;
67049;SDS011;53955;52.442;13.284;2023-11-19T12:53:19;8.63;;;2.67;;
67049;SDS011;53955;52.442;13.284;2023-11-19T12:55:47;14.33;;;2.80;;
67049;SDS011;53955;52.442;13.284;2023-11-19T12:58:30;13.23;;;3.00;;
67049;SDS011;53955;52.442;13.284;2023-11-19T13:01:00;15.23;;;4.00;;
67049;SDS011;53955;52.442;13.284;2023-11-19T13:03:30;14.60;;;3.60;;
67049;SDS011;53955;52.442;13.284;2023-11-19T13:06:01;10.73;;;3.03;;
67049;SDS011;53955;52.442;13.284;2023-11-19T13:08:29;12.00;;;3.13;;
67049;SDS011;53955;52.442;13.284;2023-11-19T13:11:02;15.70;;;3.47;;
67049;SDS011;53955;52.442;13.284;2023-11-19T13:13:29;10.57;;;3.57;;
67049;SDS011;53955;52.442;13.284;2023-11-19T13:16:01;14.27;;;3.17;;
67049;SDS011;53955;52.442;13.284;2023-11-19T13:18:29;15.00;;;3.00;;
67049;SDS011;53955;52.442;13.284;2023-11-19T13:20:55;15.43;;;4.37;;
67049;SDS011;53955;52.442;13.284;2023-11-19T13:23:22;12.10;;;3.40;;
67049;SDS011;53955;52.442;13.284;2023-11-19T13:25:50;19.20;;;3.40;;
67049;SDS011;53955;52.442;13.284;2023-11-19T13:28:17;16.43;;;3.40;;
67049;SDS011;53955;52.442;13.284;2023-11-19T13:30:44;16.63;;;3.30;;
67049;SDS011;53955;52.442;13.284;2023-11-19T13:33:10;10.07;;;3.40;;
67049;SDS011;53955;52.442;13.284;2023-11-19T13:35:38;10.00;;;2.87;;
67049;SDS011;53955;52.442;13.284;2023-11-19T13:38:05;15.83;;;3.27;;
67049;SDS011;53955;52.442;13.284;2023-11-19T13:40:33;10.63;;;3.10;;
67049;SDS011;53955;52.442;13.284;2023-11-19T13:43:00;14.80;;;2.83;;
67049;SDS011;53955;52.442;13.284;2023-11-19T13:45:28;15.57;;;3.00;;
67049;SDS011;53955;52.442;13.284;2023-11-19T13:47:54;14.73;;;2.77;;
67049;SDS011;53955;52.442;13.284;2023-11-19T13:50:21;6.23;;;2.60;;
67049;SDS011;53955;52.442;13.284;2023-11-19T13:52:48;13.70;;;3.40;;
67049;SDS011;53955;52.442;13.284;2023-11-19T13:55:15;12.90;;;3.67;;
67049;SDS011;53955;52.442;13.284;2023-11-19T13:57:42;12.63;;;3.43;;
67049;SDS011;53955;52.442;13.284;2023-11-19T14:00:09;12.87;;;3.60;;
67049;SDS011;53955;52.442;13.284;2023-11-19T14:02:39;12.07;;;3.50;;
67049;SDS011;53955;52.442;13.284;2023-11-19T14:05:06;13.63;;;3.33;;
67049;SDS011;53955;52.442;13.284;2023-11-19T14:07:32;17.40;;;3.90;;
67049;SDS011;53955;52.442;13.284;2023-11-19T14:09:59;11.93;;;3.87;;
67049;SDS011;53955;52.442;13.284;2023-11-19T14:12:26;16.47;;;3.33;;
67049;SDS011;53955;52.442;13.284;2023-11-19T14:14:52;16.30;;;3.93;;
67049;SDS011;53955;52.442;13.284;2023-11-19T14:17:19;11.57;;;3.47;;
67049;SDS011;53955;52.442;13.284;2023-11-19T14:19:47;12.87;;;3.73;;
67049;SDS011;53955;52.442;13.284;2023-11-19T14:22:14;16.53;;;3.37;;
67049;SDS011;53955;52.442;13.284;2023-11-19T14:24:40;16.53;;;4.43;;
67049;SDS011;53955;52.442;13.284;2023-11-19T14:27:08;17.53;;;3.73;;
67049;SDS011;53955;52.442;13.284;2023-11-19T14:29:34;15.57;;;3.00;;
67049;SDS011;53955;52.442;13.284;2023-11-19T14:32:01;15.23;;;3.53;;
67049;SDS011;53955;52.442;13.284;2023-11-19T14:34:28;14.00;;;3.20;;
67049;SDS011;53955;52.442;13.284;2023-11-19T14:36:56;15.37;;;3.47;;
67049;SDS011;53955;52.442;13.284;2023-11-19T14:39:23;16.47;;;3.90;;
67049;SDS011;53955;52.442;13.284;2023-11-19T14:41:50;16.20;;;3.67;;
67049;SDS011;53955;52.442;13.284;2023-11-19T14:44:17;11.73;;;3.17;;
67049;SDS011;53955;52.442;13.284;2023-11-19T14:46:45;13.50;;;2.70;;
67049;SDS011;53955;52.442;13.284;2023-11-19T14:49:12;17.27;;;3.27;;
67049;SDS011;53955;52.442;13.284;2023-11-19T14:51:39;11.27;;;2.83;;